Latest Weather Observations for Coonabarabran Airport

IDN60801

Issued at 11:12 pm EST Monday 18 June 2018 (issued every 10 minutes, with the page automatically refreshed every 10 minutes)

About weather observations | Map of weather stations | Latest weather observations for NSW | Other Formats
Station Details ID: 064017 Name: COONABARABRAN AIRPORT AWS Lat: -31.33 Lon: 149.27 Height: 645.0 m
Data from the previous 72 hours. | See also: Recent months at Coonabarabran Airport
Date/Time
EST
Temp
°C
App
Temp
°C
Dew
Point
°C
Rel
Hum
%
Delta-T
°C
Wind Press
QNH
hPa
Press
MSL
hPa
Rain since
9am
mm
Dir  Spd
km/h
Gust
km/h
Spd
kts
Gust
kts
18/11:00pm 5.9 0.5 4.4 90 0.7 SSW 22 33 12 18 1022.1 1022.0 0.0
18/10:30pm 6.1 -0.1 4.3 88 0.8 SW 26 37 14 20 1022.0 1021.9 0.0
18/10:00pm 6.1 1.0 3.9 86 1.0 SW 20 33 11 18 1022.0 1021.9 0.0
18/09:30pm 6.1 0.9 3.4 83 1.2 SSW 20 30 11 16 1021.9 1021.8 0.0
18/09:00pm 6.2 1.0 3.5 83 1.2 SSW 20 28 11 15 1021.8 1021.7 0.0
18/08:30pm 6.4 0.8 3.7 83 1.2 SW 22 32 12 17 1022.0 1021.9 0.0
18/08:00pm 6.7 1.5 3.7 81 1.3 SW 20 30 11 16 1021.9 1021.8 0.0
18/07:30pm 7.3 1.4 3.9 79 1.5 SW 24 35 13 19 1021.8 1021.7 0.0
18/07:00pm 8.1 2.2 3.8 74 1.9 SW 24 43 13 23 1021.4 1021.2 0.0
18/06:30pm 8.2 2.3 3.7 73 2.0 SW 24 35 13 19 1021.2 1021.0 0.0
18/06:00pm 8.4 2.8 3.7 72 2.1 SW 22 33 12 18 1020.9 1020.7 0.0
18/05:30pm 8.4 2.8 3.7 72 2.1 SW 22 30 12 16 1020.8 1020.6 0.0
18/05:00pm 8.3 3.1 3.4 71 2.2 SW 20 28 11 15 1020.6 1020.5 0.0
18/04:30pm 8.8 3.2 3.4 69 2.4 SW 22 33 12 18 1020.4 1020.3 0.0
18/04:00pm 9.1 3.1 3.5 68 2.5 SW 24 32 13 17 1020.1 1019.9 0.0
18/03:30pm 9.2 3.2 3.6 68 2.5 SW 24 35 13 19 1019.9 1019.7 0.0
18/03:00pm 9.7 3.4 3.7 66 2.7 SW 26 35 14 19 1019.5 1019.3 0.0
18/02:30pm 9.1 2.8 3.5 68 2.5 SW 26 33 14 18 1019.8 1019.6 0.0
18/02:00pm 9.7 3.7 3.4 65 2.8 SW 24 37 13 20 1019.5 1019.3 0.0
18/01:30pm 9.7 3.0 3.9 67 2.6 SW 28 39 15 21 1019.5 1019.3 0.0
18/01:00pm 10.3 3.7 4.2 66 2.8 SW 28 37 15 20 1019.7 1019.5 0.0
18/12:30pm 8.6 1.8 3.0 68 2.5 SSW 28 43 15 23 1019.7 1019.5 0.0
18/12:00pm 8.7 2.2 4.5 75 1.9 SW 28 39 15 21 1020.2 1020.0 0.0
18/11:31am 8.3 2.4 4.1 75 1.9 SSW 24 39 13 21 1020.8 1020.6 0.0
18/11:30am 8.3 2.1 4.1 75 1.9 SSW 26 39 14 21 1020.8 1020.6 0.0
18/11:00am 7.5 1.7 4.6 82 1.3 SW 24 41 13 22 1020.8 1020.6 0.0
18/10:37am 7.6 1.9 4.7 82 1.3 SW 24 35 13 19 1020.6 1020.5 0.0
18/10:30am 7.9 2.2 4.8 81 1.4 SW 24 32 13 17 1020.6 1020.5 0.0
18/10:03am 7.2 1.3 4.0 80 1.4 SW 24 37 13 20 1020.4 1020.3 0.0
18/10:00am 7.5 1.6 4.1 79 1.5 SW 24 35 13 19 1020.4 1020.3 0.0
18/09:30am 6.3 -0.3 4.0 85 1.0 SSW 28 41 15 22 1020.5 1020.4 0.0
18/09:20am 6.2 -0.8 3.9 85 1.0 SSW 30 43 16 23 1020.3 1020.1 0.0
18/09:00am 6.6 -0.3 4.4 86 1.0 SW 30 46 16 25 1020.0 1019.8 0.4
18/08:30am 6.2 0.5 4.8 91 0.6 SW 24 37 13 20 1019.8 1019.6 0.4
18/08:10am 5.9 0.6 5.0 94 0.4 SW 22 33 12 18 1019.6 1019.4 0.4
18/08:00am 5.8 0.1 4.9 94 0.4 SW 24 32 13 17 1019.4 1019.2 0.4
18/07:30am 5.5 0.6 5.2 98 0.1 SSW 20 28 11 15 1019.3 1019.1 0.4
18/07:05am 5.5 -0.1 5.4 99 0.0 SW 24 35 13 19 1018.9 1018.7 0.4
18/07:00am 5.4 0.2 5.3 99 0.0 SW 22 33 12 18 1018.8 1018.6 0.4
18/06:50am 5.4 0.7 5.1 98 0.1 SW 19 28 10 15 1018.7 1018.5 0.4
18/06:30am 5.4 0.5 5.0 97 0.2 SW 20 28 11 15 1018.6 1018.4 0.4
18/06:00am 5.3 0.5 4.7 96 0.3 SW 19 28 10 15 1018.3 1018.1 0.4
18/05:30am 5.3 0.4 4.9 97 0.2 SW 20 30 11 16 1018.2 1018.0 0.4
18/05:00am 5.2 0.3 5.1 99 0.0 SW 20 28 11 15 1018.1 1017.9 0.4
18/04:48am 5.2 0.3 5.1 99 0.0 SW 20 26 11 14 1018.2 1018.0 0.4
18/04:30am 5.2 0.5 5.1 99 0.0 SW 19 28 10 15 1018.2 1018.0 0.4
18/04:15am 5.1 0.7 5.0 99 0.0 WSW 17 24 9 13 1018.1 1017.9 0.4
18/04:01am 5.1 0.4 5.0 99 0.0 WSW 19 24 10 13 1018.2 1018.0 0.4
18/04:00am 5.1 0.7 5.0 99 0.0 WSW 17 24 9 13 1018.2 1018.0 0.4
18/03:45am 4.9 -0.5 4.6 98 0.1 WSW 22 28 12 15 1018.0 1017.8 0.4
18/03:30am 4.9 -0.1 4.6 98 0.1 W 20 26 11 14 1018.0 1017.8 0.4
18/03:28am 4.9 -0.1 4.6 98 0.1 W 20 26 11 14 1017.9 1017.7 0.4
18/03:00am 4.9 -0.1 4.6 98 0.1 WSW 20 28 11 15 1018.0 1017.8 0.4
18/02:48am 5.0 0.2 4.7 98 0.1 W 19 28 10 15 1018.1 1017.9 0.4
18/02:43am 5.0 0.2 4.7 98 0.1 WSW 19 26 10 14 1018.1 1017.9 0.4
18/02:30am 5.0 0.0 4.7 98 0.1 W 20 26 11 14 1018.1 1017.9 0.4
18/02:23am 5.0 0.0 4.6 97 0.2 WSW 20 28 11 15 1018.1 1017.9 0.4
18/02:00am 5.1 0.1 4.5 96 0.3 W 20 28 11 15 1018.4 1018.2 0.4
18/01:30am 5.1 0.3 4.4 95 0.3 WSW 19 22 10 12 1018.7 1018.5 0.4
18/01:13am 5.0 0.5 4.4 96 0.3 W 17 22 9 12 1018.7 1018.5 0.2
18/01:00am 4.9 0.0 4.3 96 0.3 W 19 24 10 13 1018.6 1018.4 0.2
18/12:50am 5.0 -0.1 4.1 94 0.4 W 20 30 11 16 1018.6 1018.4 0.2
18/12:42am 5.1 0.0 3.9 92 0.5 WSW 20 30 11 16 1018.7 1018.5 0.2
18/12:30am 5.3 0.1 3.8 90 0.7 W 20 30 11 16 1018.7 1018.5 0.2
18/12:00am 5.1 -0.4 3.8 91 0.6 W 22 32 12 17 1018.8 1018.6 0.2
 
Date/Time
EST
Temp
°C
App
Temp
°C
Dew
Point
°C
Rel
Hum
%
Delta-T
°C
Wind Press
QNH
hPa
Press
MSL
hPa
Rain since
9am
mm
Dir  Spd
km/h
Gust
km/h
Spd
kts
Gust
kts
17/11:30pm 5.7 -0.4 3.0 83 1.2 W 24 32 13 17 1019.0 1018.8 0.2
17/11:00pm 5.7 -0.5 2.2 78 1.5 W 24 32 13 17 1019.2 1019.0 0.2
17/10:30pm 5.3 0.1 2.7 83 1.1 W 19 30 10 16 1019.5 1019.3 0.2
17/10:00pm 6.1 -0.9 2.2 76 1.7 W 28 44 15 24 1019.4 1019.2 0.2
17/09:30pm 5.9 0.6 1.6 74 1.8 W 19 28 10 15 1019.4 1019.2 0.2
17/09:00pm 5.3 0.3 1.4 76 1.6 W 17 24 9 13 1019.5 1019.3 0.2
17/08:30pm 5.9 0.6 1.6 74 1.8 W 19 26 10 14 1019.6 1019.4 0.2
17/08:00pm 6.2 1.2 1.5 72 2.0 WSW 17 26 9 14 1019.5 1019.3 0.2
17/07:30pm 6.5 1.2 1.6 71 2.1 WSW 19 26 10 14 1019.6 1019.4 0.2
17/07:00pm 6.8 1.2 1.3 68 2.3 WSW 20 32 11 17 1019.2 1019.0 0.2
17/06:30pm 6.7 2.0 1.2 68 2.3 W 15 22 8 12 1018.9 1018.7 0.2
17/06:00pm 6.5 1.8 1.2 69 2.2 W 15 24 8 13 1018.8 1018.6 0.2
17/05:30pm 6.2 1.2 1.1 70 2.1 W 17 26 9 14 1018.6 1018.4 0.2
17/05:00pm 6.6 1.2 1.1 68 2.3 W 19 28 10 15 1018.5 1018.3 0.2
17/04:30pm 6.8 1.8 1.1 67 2.4 W 17 26 9 14 1018.5 1018.3 0.2
17/04:00pm 6.8 1.7 0.9 66 2.4 W 17 24 9 13 1018.4 1018.2 0.2
17/03:30pm 6.9 0.5 0.8 65 2.5 W 24 33 13 18 1018.2 1018.0 0.2
17/03:00pm 7.0 0.9 0.5 63 2.7 W 22 37 12 20 1018.2 1018.0 0.2
17/02:30pm 7.2 -0.1 0.2 61 2.9 W 28 35 15 19 1018.0 1017.8 0.2
17/02:00pm 7.1 0.2 0.3 62 2.8 W 26 37 14 20 1017.7 1017.4 0.2
17/01:30pm 6.8 -0.8 0.5 64 2.6 W 30 39 16 21 1017.9 1017.7 0.2
17/01:00pm 7.1 1.1 0.8 64 2.6 W 22 32 12 17 1017.8 1017.6 0.2
17/12:30pm 6.0 -0.8 1.0 70 2.1 W 26 39 14 21 1017.9 1017.7 0.0
17/12:00pm 5.6 -1.1 1.2 73 1.8 W 26 35 14 19 1018.4 1018.2 0.0
17/11:37am 5.9 0.6 1.8 75 1.7 W 19 26 10 14 1018.7 1018.5 0.0
17/11:30am 6.1 0.4 3.1 81 1.3 WSW 22 30 12 16 1018.6 1018.4 0.0
17/11:00am 4.9 -1.3 2.3 83 1.1 WSW 24 32 13 17 1018.8 1018.6 0.0
17/10:32am 4.6 -1.2 2.1 84 1.0 WSW 22 32 12 17 1019.0 1018.8 0.0
17/10:30am 4.9 -0.5 2.6 85 1.0 WSW 20 28 11 15 1019.0 1018.8 0.0
17/10:09am 4.8 -1.0 2.3 84 1.0 WSW 22 33 12 18 1018.9 1018.7 0.0
17/10:00am 4.8 -1.3 2.7 86 0.9 W 24 33 13 18 1018.8 1018.6 0.0
17/09:30am 4.1 -2.0 2.9 92 0.5 WSW 24 35 13 19 1018.7 1018.5 0.0
17/09:00am 4.3 -0.9 3.3 93 0.4 W 20 26 11 14 1018.4 1018.2 0.4
17/08:46am 4.2 -0.2 2.9 91 0.6 W 15 26 8 14 1018.3 1018.1 0.4
17/08:42am 4.2 -0.1 3.3 94 0.4 W 15 20 8 11 1018.2 1018.0 0.4
17/08:30am 3.9 -1.3 2.7 92 0.5 W 19 26 10 14 1018.1 1017.9 0.4
17/08:29am 3.9 -1.3 2.6 91 0.5 W 19 26 10 14 1018.1 1017.9 0.4
17/08:00am 3.9 -1.2 2.9 93 0.4 W 19 24 10 13 1018.1 1017.9 0.4
17/07:30am 4.6 -1.1 2.8 88 0.8 WSW 22 32 12 17 1017.5 1017.2 0.0
17/07:00am 4.7 -0.8 1.9 82 1.2 NW 20 24 11 13 1017.3 1017.1 0.0
17/06:30am 5.0 -0.4 2.4 83 1.1 WNW 20 30 11 16 1017.1 1016.9 0.0
17/06:00am 4.8 -1.4 2.2 83 1.1 WNW 24 41 13 22 1016.7 1016.5 0.0
17/05:52am 4.8 -0.7 2.0 82 1.2 WNW 20 41 11 22 1016.8 1016.6 0.0
17/05:30am 4.8 0.6 1.7 80 1.3 NW 13 15 7 8 1016.6 1016.4 0.0
17/05:00am 4.2 0.3 0.9 79 1.3 NNW 11 13 6 7 1016.7 1016.5 0.0
17/04:30am 3.9 -0.5 0.2 77 1.5 NW 13 15 7 8 1016.9 1016.7 0.0
17/04:00am 4.5 -0.2 0.8 77 1.5 WNW 15 19 8 10 1017.2 1017.0 0.0
17/03:30am 4.6 0.2 0.6 75 1.6 W 13 19 7 10 1017.3 1017.1 0.0
17/03:00am 5.9 0.9 1.2 72 1.9 WSW 17 26 9 14 1017.2 1017.0 0.0
17/02:30am 5.9 0.5 1.4 73 1.9 WSW 19 26 10 14 1017.7 1017.4 0.0
17/02:00am 6.2 2.1 2.1 75 1.7 SW 13 20 7 11 1017.8 1017.6 0.0
17/01:30am 6.2 1.7 1.9 74 1.8 WSW 15 22 8 12 1017.9 1017.7 0.0
17/01:00am 6.4 1.4 1.5 71 2.0 WSW 17 24 9 13 1018.2 1018.0 0.0
17/12:30am 6.5 0.5 1.2 69 2.2 WSW 22 39 12 21 1018.1 1017.9 0.0
17/12:00am 8.1 1.6 0.3 58 3.2 W 24 35 13 19 1018.1 1017.9 0.0
 
Date/Time
EST
Temp
°C
App
Temp
°C
Dew
Point
°C
Rel
Hum
%
Delta-T
°C
Wind Press
QNH
hPa
Press
MSL
hPa
Rain since
9am
mm
Dir  Spd
km/h
Gust
km/h
Spd
kts
Gust
kts
16/11:30pm 7.7 1.1 -0.3 57 3.2 W 24 35 13 19 1018.2 1018.0 0.0
16/11:00pm 8.0 1.0 -0.5 55 3.4 W 26 37 14 20 1018.6 1018.4 0.0
16/10:30pm 7.9 2.2 -0.8 54 3.5 W 19 24 10 13 1018.7 1018.5 0.0
16/10:00pm 8.2 2.8 -1.3 51 3.8 W 17 24 9 13 1018.8 1018.6 0.0
16/09:30pm 8.1 2.1 -1.7 50 3.9 WNW 20 28 11 15 1018.8 1018.6 0.0
16/09:00pm 8.7 2.3 -1.4 49 4.0 WNW 22 30 12 16 1018.7 1018.5 0.0
16/08:30pm 8.8 2.0 -1.6 48 4.1 WNW 24 33 13 18 1018.8 1018.6 0.0
16/08:00pm 9.3 2.6 -1.1 48 4.2 WNW 24 35 13 19 1018.6 1018.4 0.0
16/07:30pm 8.7 3.3 -1.7 48 4.1 W 17 20 9 11 1018.3 1018.1 0.0
16/07:00pm 8.7 3.7 -1.4 49 4.0 W 15 20 8 11 1018.2 1018.0 0.0
16/06:30pm 8.8 3.4 -1.6 48 4.1 WNW 17 22 9 12 1017.8 1017.6 0.0
16/06:00pm 9.2 3.8 -1.5 47 4.3 W 17 22 9 12 1017.7 1017.4 0.0
16/05:30pm 9.0 3.9 -1.7 47 4.3 WNW 15 22 8 12 1017.6 1017.3 0.0
16/05:00pm 10.2 5.2 -1.5 44 4.7 WNW 15 20 8 11 1017.6 1017.3 0.0
16/04:30pm 11.4 4.7 -1.4 41 5.3 WNW 24 32 13 17 1017.6 1017.3 0.0
16/04:00pm 11.5 3.6 -1.6 40 5.4 WNW 30 41 16 22 1017.5 1017.2 0.0
16/03:30pm 11.4 3.5 -1.4 41 5.3 WNW 30 43 16 23 1017.6 1017.3 0.0
16/03:00pm 12.4 4.5 -1.9 37 5.9 W 30 43 16 23 1017.3 1017.1 0.0
16/02:30pm 12.5 4.2 -1.8 37 5.9 WNW 32 43 17 23 1017.5 1017.2 0.0
16/02:00pm 11.8 2.9 -2.0 38 5.6 WNW 35 44 19 24 1017.6 1017.3 0.0
16/01:47pm 12.5 4.9 -1.8 37 5.9 W 28 46 15 25 1017.7 1017.4 0.0
16/01:30pm 12.8 3.1 -1.9 36 6.1 W 39 50 21 27 1017.7 1017.4 0.0
16/01:00pm 13.3 4.6 -0.7 38 5.9 WNW 35 50 19 27 1018.0 1017.8 0.0
16/12:54pm 12.8 4.6 -1.1 38 5.8 WNW 32 50 17 27 1018.1 1017.9 0.0
16/12:30pm 12.3 4.0 -0.6 41 5.4 WNW 33 46 18 25 1018.6 1018.4 0.0
16/12:00pm 12.5 4.4 0.0 42 5.3 W 32 41 17 22 1019.2 1019.0 0.0
16/11:30am 11.8 3.4 -0.7 42 5.2 WNW 33 44 18 24 1019.8 1019.6 0.0
16/11:00am 12.4 5.5 0.2 43 5.2 WNW 26 35 14 19 1020.2 1020.0 0.0
16/10:30am 11.7 4.5 0.5 46 4.8 W 28 41 15 22 1020.8 1020.6 0.0
16/10:00am 11.2 6.9 0.9 49 4.4 W 13 24 7 13 1020.9 1020.7 0.0
16/09:30am 10.2 6.3 1.3 54 3.8 WNW 11 15 6 8 1020.9 1020.7 0.0
16/09:00am 9.6 6.2 1.8 58 3.4 WNW 9 15 5 8 1020.9 1020.7 0.0
16/08:30am 8.9 5.6 2.3 63 2.9 WNW 9 17 5 9 1020.8 1020.6 0.0
16/08:00am 7.2 3.9 2.5 72 2.0 NNW 9 17 5 9 1020.6 1020.5 0.0
16/07:30am 6.4 3.1 2.5 76 1.7 NNW 9 11 5 6 1020.5 1020.4 0.0
16/07:00am 6.3 3.3 2.2 75 1.7 NNW 7 17 4 9 1020.3 1020.1 0.0
16/06:30am 6.3 2.9 1.6 72 2.0 N 9 17 5 9 1020.0 1019.8 0.0
16/06:00am 6.4 2.9 1.1 69 2.2 NNW 9 17 5 9 1019.8 1019.6 0.0
16/05:30am 7.1 3.6 1.2 66 2.5 WSW 9 17 5 9 1019.7 1019.5 0.0
16/05:00am 7.5 3.6 1.4 65 2.6 WSW 11 17 6 9 1019.6 1019.4 0.0
16/04:30am 7.3 3.9 1.6 67 2.4 W 9 15 5 8 1019.7 1019.5 0.0
16/04:00am 7.0 3.2 1.7 69 2.2 WNW 11 13 6 7 1019.9 1019.7 0.0
16/03:30am 7.4 4.1 2.5 71 2.1 W 9 17 5 9 1020.0 1019.8 0.0
16/03:00am 7.5 4.2 2.6 71 2.1 WSW 9 17 5 9 1020.2 1020.0 0.0
16/02:30am 7.2 3.5 2.3 71 2.1 W 11 13 6 7 1020.3 1020.1 0.0
16/02:00am 7.9 4.8 3.4 73 2.0 W 9 13 5 7 1020.6 1020.5 0.0
16/01:30am 7.7 4.1 3.0 72 2.1 WSW 11 13 6 7 1020.8 1020.6 0.0
16/01:00am 8.5 4.9 3.1 69 2.4 WSW 11 15 6 8 1021.0 1020.8 0.0
16/12:30am 8.6 4.6 3.0 68 2.5 WSW 13 17 7 9 1021.2 1021.0 0.0
16/12:00am 9.0 5.5 3.6 69 2.4 W 11 17 6 9 1021.4 1021.2 0.0
 
Date/Time
EST
Temp
°C
App
Temp
°C
Dew
Point
°C
Rel
Hum
%
Delta-T
°C
Wind Press
QNH
hPa
Press
MSL
hPa
Rain since
9am
mm
Dir  Spd
km/h
Gust
km/h
Spd
kts
Gust
kts
15/11:30pm 9.4 5.9 3.6 67 2.6 W 11 15 6 8 1021.5 1021.3 0.0

Other Formats:

Comma delimited format used in spreadsheet applications
http://www.bom.gov.au/fwo/IDN60801/IDN60801.95728.axf

JavaScript Object Notation format (JSON) in row-major order
http://www.bom.gov.au/fwo/IDN60801/IDN60801.95728.json